createdAt,value
2023-02-11T00:01:28.434Z,7.00
2023-02-11T00:03:55.991Z,8.67
2023-02-11T00:06:24.713Z,7.87
2023-02-11T00:08:52.120Z,6.20
2023-02-11T00:11:21.261Z,7.33
2023-02-11T00:13:49.304Z,7.97
2023-02-11T00:16:20.003Z,8.50
2023-02-11T00:18:47.831Z,9.30
2023-02-11T00:21:21.723Z,7.73
2023-02-11T00:23:49.149Z,7.57
2023-02-11T00:26:23.093Z,9.87
2023-02-11T00:28:51.262Z,7.33
2023-02-11T00:31:20.756Z,8.77
2023-02-11T00:33:49.019Z,7.70
2023-02-11T00:36:22.990Z,9.03
2023-02-11T00:38:52.472Z,7.67
2023-02-11T00:41:20.407Z,8.60
2023-02-11T00:43:47.798Z,11.50
2023-02-11T00:46:15.838Z,11.70
2023-02-11T00:48:43.519Z,11.47
2023-02-11T00:51:11.230Z,11.67
2023-02-11T00:53:38.781Z,11.50
2023-02-11T00:56:06.512Z,12.23
2023-02-11T00:58:34.062Z,10.90
2023-02-11T01:01:01.522Z,14.30
2023-02-11T01:03:28.966Z,14.53
2023-02-11T01:05:56.314Z,11.77
2023-02-11T01:08:23.609Z,11.13
2023-02-11T01:11:00.257Z,11.90
2023-02-11T01:13:27.932Z,10.23
2023-02-11T01:15:55.940Z,7.53
2023-02-11T01:18:23.776Z,11.73
2023-02-11T01:20:52.829Z,13.43
2023-02-11T01:23:20.827Z,11.73
2023-02-11T01:25:48.638Z,9.33
2023-02-11T01:28:27.936Z,8.23
2023-02-11T01:30:55.528Z,12.40
2023-02-11T01:33:23.028Z,7.70
2023-02-11T01:35:50.768Z,9.80
2023-02-11T01:38:24.113Z,9.30
2023-02-11T01:41:04.891Z,9.73
2023-02-11T01:43:36.718Z,9.97
2023-02-11T01:46:21.316Z,10.45
2023-02-11T01:48:55.190Z,11.27
2023-02-11T01:51:33.176Z,8.20
2023-02-11T01:54:21.883Z,11.10
2023-02-11T01:57:11.586Z,11.37
2023-02-11T02:00:02.197Z,10.10
2023-02-11T02:03:02.996Z,8.90
2023-02-11T02:05:38.360Z,8.53
2023-02-11T02:08:35.507Z,7.10
2023-02-11T02:11:03.542Z,8.80
2023-02-11T02:13:34.023Z,8.30
2023-02-11T02:16:02.596Z,10.80
2023-02-11T02:19:18.992Z,10.87
2023-02-11T02:22:07.303Z,10.67
2023-02-11T02:25:10.539Z,9.00
2023-02-11T02:28:13.319Z,7.73
2023-02-11T02:31:21.076Z,11.82
2023-02-11T02:33:56.545Z,8.20
2023-02-11T02:37:09.568Z,8.70
2023-02-11T02:39:37.401Z,8.82
2023-02-11T02:42:05.579Z,9.27
2023-02-11T02:44:33.181Z,7.63
2023-02-11T02:47:03.303Z,11.40
2023-02-11T02:49:30.683Z,10.73
2023-02-11T02:52:55.938Z,9.83
2023-02-11T02:55:56.451Z,9.47
2023-02-11T02:58:58.299Z,12.30
2023-02-11T03:01:47.006Z,8.53
2023-02-11T03:04:58.026Z,10.23
2023-02-11T03:08:09.136Z,11.40
2023-02-11T03:10:41.822Z,13.07
2023-02-11T03:13:09.241Z,10.30
2023-02-11T03:15:44.151Z,10.53
2023-02-11T03:18:16.027Z,10.70
2023-02-11T03:20:47.728Z,10.27
2023-02-11T03:23:23.953Z,9.13
2023-02-11T03:25:57.875Z,12.07
2023-02-11T03:28:40.653Z,10.30
2023-02-11T03:31:22.435Z,10.20
2023-02-11T03:34:03.791Z,10.93
2023-02-11T03:36:45.919Z,8.67
2023-02-11T03:39:20.042Z,10.05
2023-02-11T03:41:49.279Z,10.00
2023-02-11T03:44:17.142Z,12.10
2023-02-11T03:46:50.929Z,10.17
2023-02-11T03:49:20.445Z,8.17
2023-02-11T03:51:51.395Z,11.43
2023-02-11T03:54:24.886Z,10.90
2023-02-11T03:56:55.392Z,12.67
2023-02-11T03:59:23.002Z,13.40
2023-02-11T04:01:50.928Z,12.37
2023-02-11T04:04:18.735Z,10.53
2023-02-11T04:06:46.293Z,9.43
2023-02-11T04:09:14.939Z,11.30
2023-02-11T04:11:42.476Z,12.00
2023-02-11T04:14:09.716Z,11.03
2023-02-11T04:16:37.011Z,11.90
2023-02-11T04:19:04.566Z,9.17
2023-02-11T04:21:31.846Z,6.63
2023-02-11T04:23:59.122Z,12.97
2023-02-11T04:26:26.413Z,7.73
2023-02-11T04:28:53.672Z,11.07
2023-02-11T04:31:21.039Z,9.87
2023-02-11T04:33:48.441Z,9.27
2023-02-11T04:36:15.729Z,5.83
2023-02-11T04:38:42.991Z,10.37
2023-02-11T04:41:10.488Z,11.50
2023-02-11T04:43:37.719Z,8.17
2023-02-11T04:46:05.116Z,6.77
2023-02-11T04:48:32.689Z,9.20
2023-02-11T04:50:59.967Z,11.53
2023-02-11T04:53:27.240Z,8.87
2023-02-11T04:55:54.504Z,10.80
2023-02-11T04:58:21.956Z,10.73
2023-02-11T05:00:49.221Z,11.40
2023-02-11T05:03:16.738Z,10.50
2023-02-11T05:05:44.214Z,11.13
2023-02-11T05:08:12.086Z,10.37
2023-02-11T05:10:39.478Z,11.73
2023-02-11T05:13:06.773Z,9.97
2023-02-11T05:15:34.027Z,11.33
2023-02-11T05:18:01.281Z,10.33
2023-02-11T05:20:28.601Z,11.70
2023-02-11T05:22:55.895Z,10.10
2023-02-11T05:25:23.197Z,11.17
2023-02-11T05:27:50.517Z,10.90
2023-02-11T05:30:17.925Z,10.80
2023-02-11T05:32:45.203Z,13.10
2023-02-11T05:35:12.509Z,10.57
2023-02-11T05:37:39.718Z,8.97
2023-02-11T05:40:07.446Z,10.27
2023-02-11T05:42:34.728Z,10.30
2023-02-11T05:45:02.214Z,10.23
2023-02-11T05:47:29.657Z,11.20
2023-02-11T05:49:56.957Z,11.20
2023-02-11T05:52:24.662Z,10.93
2023-02-11T05:54:51.967Z,6.03
2023-02-11T05:57:19.255Z,10.60
2023-02-11T05:59:46.522Z,7.30
2023-02-11T06:02:13.880Z,11.17
2023-02-11T06:04:41.814Z,11.53
2023-02-11T06:07:09.117Z,11.80
2023-02-11T06:09:37.714Z,14.13
2023-02-11T06:12:05.008Z,12.03
2023-02-11T06:14:34.106Z,11.30
2023-02-11T06:17:01.650Z,8.83
2023-02-11T06:19:28.962Z,10.10
2023-02-11T06:21:57.197Z,10.33
2023-02-11T06:24:51.114Z,11.17
2023-02-11T06:27:12.557Z,8.67
2023-02-11T06:29:39.834Z,11.60
2023-02-11T06:32:10.068Z,11.13
2023-02-11T06:34:43.408Z,9.40
2023-02-11T06:37:10.917Z,6.30
2023-02-11T06:39:38.182Z,11.13
2023-02-11T06:42:07.889Z,9.07
2023-02-11T06:44:35.259Z,10.43
2023-02-11T06:47:02.826Z,7.20
2023-02-11T06:49:30.124Z,11.70
2023-02-11T06:51:57.389Z,12.87
2023-02-11T06:54:24.822Z,9.50
2023-02-11T06:56:52.079Z,7.47
2023-02-11T06:59:20.733Z,11.40
2023-02-11T07:01:48.518Z,11.87
2023-02-11T07:04:16.032Z,8.40
2023-02-11T07:06:43.376Z,9.83
2023-02-11T07:09:10.744Z,8.90
2023-02-11T07:11:37.996Z,8.83
2023-02-11T07:14:10.612Z,11.90
2023-02-11T07:16:39.040Z,7.37
2023-02-11T07:19:05.936Z,9.77
2023-02-11T07:21:33.416Z,11.17
2023-02-11T07:24:00.865Z,11.57
2023-02-11T07:26:28.988Z,8.97
2023-02-11T07:28:56.429Z,9.97
2023-02-11T07:31:27.434Z,8.63
2023-02-11T07:33:59.057Z,6.97
2023-02-11T07:36:27.498Z,10.10
2023-02-11T07:38:54.789Z,8.67
2023-02-11T07:41:24.541Z,8.40
2023-02-11T07:43:52.057Z,11.57
2023-02-11T07:46:23.086Z,9.73
2023-02-11T07:48:50.666Z,9.40
2023-02-11T07:51:24.236Z,10.03
2023-02-11T07:53:52.222Z,7.93
2023-02-11T07:56:21.038Z,9.10
2023-02-11T07:58:48.526Z,6.10
2023-02-11T08:01:19.466Z,8.73
2023-02-11T08:03:46.359Z,11.80
2023-02-11T08:06:16.587Z,9.97
2023-02-11T08:08:44.518Z,13.83
2023-02-11T08:11:16.161Z,8.90
2023-02-11T08:13:43.723Z,8.00
2023-02-11T08:16:29.107Z,9.27
2023-02-11T08:18:58.862Z,11.43
2023-02-11T08:21:26.394Z,11.80
2023-02-11T08:23:53.967Z,11.03
2023-02-11T08:26:24.508Z,12.60
2023-02-11T08:28:53.406Z,10.50
2023-02-11T08:31:28.631Z,14.10
2023-02-11T08:33:58.167Z,12.80
2023-02-11T08:36:36.675Z,13.70
2023-02-11T08:39:20.068Z,10.13
2023-02-11T08:41:53.237Z,13.20
2023-02-11T08:44:21.423Z,12.67
2023-02-11T08:46:49.014Z,12.70
2023-02-11T08:49:16.774Z,12.87
2023-02-11T08:51:44.624Z,11.10
2023-02-11T08:54:12.089Z,11.43
2023-02-11T08:56:39.686Z,11.57
2023-02-11T08:59:07.509Z,16.93
2023-02-11T09:01:35.118Z,14.57
2023-02-11T09:04:05.187Z,14.07
2023-02-11T09:06:32.747Z,12.30
2023-02-11T09:09:00.152Z,11.70
2023-02-11T09:11:34.762Z,8.07
2023-02-11T09:14:03.940Z,8.40
2023-02-11T09:16:35.467Z,6.50
2023-02-11T09:19:05.548Z,5.43
2023-02-11T09:21:32.958Z,7.60
2023-02-11T09:24:00.316Z,5.73
2023-02-11T09:26:31.651Z,9.43
2023-02-11T09:28:59.446Z,4.50
2023-02-11T09:31:29.657Z,6.33
2023-02-11T09:34:04.293Z,5.53
2023-02-11T09:36:35.295Z,6.57
2023-02-11T09:39:03.613Z,7.27
2023-02-11T09:41:37.103Z,5.80
2023-02-11T09:44:09.009Z,5.97
2023-02-11T09:46:40.378Z,4.22
2023-02-11T09:49:10.592Z,6.00
2023-02-11T09:52:08.311Z,2.30
2023-02-11T09:54:57.710Z,5.33
2023-02-11T09:57:32.837Z,4.10
2023-02-11T10:00:01.152Z,4.93
2023-02-11T10:02:53.625Z,5.53
2023-02-11T10:05:39.248Z,6.50
2023-02-11T10:08:16.929Z,6.47
2023-02-11T10:10:59.313Z,5.53
2023-02-11T10:13:34.321Z,5.75
2023-02-11T10:16:01.757Z,6.60
2023-02-11T10:18:47.632Z,8.80
2023-02-11T10:21:25.551Z,5.03
2023-02-11T10:23:56.287Z,2.53
2023-02-11T10:26:23.984Z,2.23
2023-02-11T10:28:53.630Z,2.80
2023-02-11T10:31:42.268Z,2.80
2023-02-11T10:34:14.822Z,1.67
2023-02-11T10:36:44.437Z,3.63
2023-02-11T10:39:16.434Z,2.83
2023-02-11T10:41:46.227Z,3.45
2023-02-11T10:44:25.759Z,3.67
2023-02-11T10:46:54.448Z,1.40
2023-02-11T10:49:42.342Z,4.10
2023-02-11T10:52:26.072Z,1.17
2023-02-11T10:55:25.714Z,4.47
2023-02-11T10:58:01.884Z,4.43
2023-02-11T11:00:43.267Z,4.20
2023-02-11T11:03:23.472Z,5.97
2023-02-11T11:06:02.706Z,4.83
2023-02-11T11:08:59.432Z,4.93
2023-02-11T11:11:27.164Z,5.20
2023-02-11T11:14:00.598Z,5.57
2023-02-11T11:16:35.737Z,4.97
2023-02-11T11:19:08.697Z,3.83
2023-02-11T11:21:45.377Z,6.13
2023-02-11T11:24:27.931Z,5.03
2023-02-11T11:27:00.872Z,4.30
2023-02-11T11:30:08.676Z,3.83
2023-02-11T11:32:37.110Z,4.13
2023-02-11T11:35:20.038Z,5.13
2023-02-11T11:37:54.462Z,2.17
2023-02-11T11:40:25.892Z,2.37
2023-02-11T11:43:12.711Z,6.78
2023-02-11T11:45:43.598Z,5.03
2023-02-11T11:48:27.063Z,3.33
2023-02-11T11:51:00.345Z,6.17
2023-02-11T11:53:40.957Z,6.55
2023-02-11T11:56:39.508Z,4.18
2023-02-11T11:59:16.543Z,3.42
2023-02-11T12:02:11.285Z,3.78
2023-02-11T12:04:42.596Z,4.68
2023-02-11T12:08:17.987Z,5.43
2023-02-11T12:11:13.864Z,5.70
2023-02-11T12:14:03.683Z,4.20
2023-02-11T12:16:37.189Z,5.13
2023-02-11T12:19:19.073Z,5.23
2023-02-11T12:22:11.066Z,5.20
2023-02-11T12:25:20.598Z,6.07
2023-02-11T12:28:07.955Z,6.13
2023-02-11T12:31:33.033Z,5.22
2023-02-11T12:34:32.543Z,5.87
2023-02-11T12:37:09.285Z,5.13
2023-02-11T12:40:02.872Z,5.93
2023-02-11T12:42:56.694Z,5.65
2023-02-11T12:46:02.579Z,5.20
2023-02-11T12:48:48.995Z,6.40
2023-02-11T12:51:32.123Z,5.97
2023-02-11T12:54:47.801Z,5.10
2023-02-11T12:57:26.173Z,4.60
2023-02-11T13:00:05.555Z,5.53
2023-02-11T13:02:56.720Z,6.18
2023-02-11T13:05:42.928Z,6.05
2023-02-11T13:08:32.445Z,6.03
2023-02-11T13:11:04.887Z,2.15
2023-02-11T13:13:34.473Z,4.88
2023-02-11T13:16:07.632Z,4.82
2023-02-11T13:18:56.551Z,5.40
2023-02-11T13:22:05.859Z,5.43
2023-02-11T13:24:51.310Z,5.63
2023-02-11T13:27:58.738Z,6.15
2023-02-11T13:30:32.866Z,6.15
2023-02-11T13:33:03.988Z,6.28
2023-02-11T13:35:38.082Z,5.72
2023-02-11T13:38:27.582Z,5.78
2023-02-11T13:41:05.989Z,5.20
2023-02-11T13:43:37.247Z,6.13
2023-02-11T13:46:06.476Z,4.77
2023-02-11T13:48:47.059Z,4.93
2023-02-11T13:51:16.599Z,5.30
2023-02-11T13:53:52.394Z,5.53
2023-02-11T13:56:42.617Z,5.78
2023-02-11T13:59:30.521Z,5.13
2023-02-11T14:02:18.533Z,4.75
2023-02-11T14:05:22.906Z,6.22
2023-02-11T14:08:29.524Z,4.80
2023-02-11T14:10:59.643Z,5.43
2023-02-11T14:13:30.652Z,6.43
2023-02-11T14:16:37.425Z,5.38
2023-02-11T14:19:06.032Z,4.63
2023-02-11T14:21:40.310Z,5.93
2023-02-11T14:24:11.618Z,4.70
2023-02-11T14:26:47.731Z,5.60
2023-02-11T14:29:31.455Z,6.18
2023-02-11T14:32:05.910Z,5.57
2023-02-11T14:35:00.413Z,6.13
2023-02-11T14:37:38.270Z,6.78
2023-02-11T14:40:19.197Z,5.32
2023-02-11T14:42:46.572Z,5.88
2023-02-11T14:45:21.176Z,6.90
2023-02-11T14:48:19.670Z,8.82
2023-02-11T14:50:50.477Z,8.48
2023-02-11T14:53:20.434Z,6.18
2023-02-11T14:55:56.509Z,5.47
2023-02-11T14:58:33.877Z,5.50
2023-02-11T15:01:26.168Z,6.15
2023-02-11T15:03:56.601Z,4.93
2023-02-11T15:06:40.336Z,5.35
2023-02-11T15:09:19.986Z,5.00
2023-02-11T15:11:51.742Z,5.35
2023-02-11T15:14:20.083Z,5.47
2023-02-11T15:16:47.728Z,4.88
2023-02-11T15:19:34.265Z,4.40
2023-02-11T15:22:05.998Z,5.30
2023-02-11T15:24:35.390Z,4.07
2023-02-11T15:27:16.346Z,5.90
2023-02-11T15:29:49.291Z,6.40
2023-02-11T15:32:25.538Z,5.78
2023-02-11T15:34:56.680Z,5.93
2023-02-11T15:37:26.838Z,5.43
2023-02-11T15:39:54.790Z,3.85
2023-02-11T15:42:34.084Z,4.60
2023-02-11T15:45:13.587Z,6.13
2023-02-11T15:47:48.085Z,5.57
2023-02-11T15:50:30.466Z,6.45
2023-02-11T15:53:21.057Z,7.35
2023-02-11T15:55:50.655Z,6.47
2023-02-11T15:58:18.043Z,6.68
2023-02-11T16:00:52.161Z,6.70
2023-02-11T16:03:22.406Z,6.45
2023-02-11T16:05:50.010Z,6.65
2023-02-11T16:08:26.844Z,5.53
2023-02-11T16:11:02.404Z,7.13
2023-02-11T16:13:35.669Z,6.97
2023-02-11T16:16:24.623Z,6.90
2023-02-11T16:19:04.813Z,8.18
2023-02-11T16:21:39.121Z,7.47
2023-02-11T16:24:08.148Z,7.63
2023-02-11T16:26:43.482Z,6.78
2023-02-11T16:29:16.755Z,6.93
2023-02-11T16:31:46.262Z,7.32
2023-02-11T16:34:19.114Z,6.95
2023-02-11T16:36:47.557Z,8.00
2023-02-11T16:39:17.334Z,7.75
2023-02-11T16:41:44.672Z,7.95
2023-02-11T16:44:12.052Z,6.80
2023-02-11T16:46:39.464Z,8.32
2023-02-11T16:49:10.270Z,7.68
2023-02-11T16:51:40.374Z,8.77
2023-02-11T16:54:09.965Z,7.65
2023-02-11T16:56:37.347Z,9.07
2023-02-11T16:59:04.639Z,9.30
2023-02-11T17:01:32.684Z,9.05
2023-02-11T17:04:00.309Z,9.23
2023-02-11T17:06:28.049Z,8.85
2023-02-11T17:08:55.312Z,10.70
2023-02-11T17:11:22.600Z,8.52
2023-02-11T17:13:49.884Z,9.90
2023-02-11T17:16:22.532Z,9.10
2023-02-11T17:18:50.569Z,9.57
2023-02-11T17:21:18.379Z,8.98
2023-02-11T17:23:45.994Z,8.13
2023-02-11T17:26:13.314Z,8.38
2023-02-11T17:28:40.599Z,9.20
2023-02-11T17:31:09.289Z,8.95
2023-02-11T17:33:37.713Z,8.43
2023-02-11T17:36:09.769Z,9.63
2023-02-11T17:38:38.146Z,7.95
2023-02-11T17:41:05.794Z,8.07
2023-02-11T17:43:33.184Z,7.68
2023-02-11T17:46:00.561Z,7.47
2023-02-11T17:48:27.871Z,8.25
2023-02-11T17:50:55.186Z,7.88
2023-02-11T17:53:22.616Z,7.28
2023-02-11T17:55:50.219Z,7.22
2023-02-11T17:58:17.957Z,7.20
2023-02-11T18:00:45.475Z,8.35
2023-02-11T18:03:12.744Z,6.88
2023-02-11T18:05:40.088Z,6.22
2023-02-11T18:08:07.745Z,6.80
2023-02-11T18:10:35.163Z,6.53
2023-02-11T18:13:02.621Z,6.63
2023-02-11T18:15:29.973Z,7.50
2023-02-11T18:17:57.292Z,6.90
2023-02-11T18:20:24.611Z,7.63
2023-02-11T18:22:52.018Z,7.80
2023-02-11T18:25:19.425Z,7.40
2023-02-11T18:27:46.850Z,7.65
2023-02-11T18:30:20.520Z,7.90
2023-02-11T18:32:48.013Z,6.68
2023-02-11T18:35:15.988Z,7.30
2023-02-11T18:37:43.526Z,8.93
2023-02-11T18:40:12.164Z,8.25
2023-02-11T18:42:39.930Z,7.28
2023-02-11T18:45:09.590Z,8.00
2023-02-11T18:47:38.310Z,9.88
2023-02-11T18:50:07.376Z,8.38
2023-02-11T18:52:38.015Z,7.88
2023-02-11T18:55:06.978Z,8.90
2023-02-11T18:57:34.331Z,8.90
2023-02-11T19:00:01.744Z,8.40
2023-02-11T19:02:29.316Z,8.05
2023-02-11T19:04:56.660Z,8.38
2023-02-11T19:07:25.296Z,8.40
2023-02-11T19:09:52.625Z,8.43
2023-02-11T19:12:19.914Z,8.75
2023-02-11T19:14:47.274Z,8.68
2023-02-11T19:17:14.541Z,7.82
2023-02-11T19:19:41.911Z,8.32
2023-02-11T19:22:10.769Z,8.73
2023-02-11T19:24:39.922Z,8.30
2023-02-11T19:27:07.207Z,11.07
2023-02-11T19:29:35.085Z,10.45
2023-02-11T19:32:05.692Z,10.77
2023-02-11T19:34:33.473Z,12.07
2023-02-11T19:37:01.771Z,7.07
2023-02-11T19:39:31.397Z,8.45
2023-02-11T19:41:58.889Z,8.23
2023-02-11T19:44:26.232Z,7.55
2023-02-11T19:46:54.669Z,7.30
2023-02-11T19:49:26.217Z,8.23
2023-02-11T19:51:55.732Z,6.93
2023-02-11T19:54:23.176Z,7.50
2023-02-11T19:56:50.522Z,8.30
2023-02-11T19:59:17.976Z,8.02
2023-02-11T20:01:47.751Z,8.50
2023-02-11T20:04:16.892Z,7.85
2023-02-11T20:06:44.508Z,9.18
2023-02-11T20:09:14.398Z,8.50
2023-02-11T20:11:42.532Z,8.63
2023-02-11T20:14:14.581Z,8.57
2023-02-11T20:16:48.552Z,7.30
2023-02-11T20:19:21.589Z,9.77
2023-02-11T20:21:53.384Z,8.27
2023-02-11T20:24:21.490Z,8.80
2023-02-11T20:26:49.402Z,9.27
2023-02-11T20:29:20.505Z,10.10
2023-02-11T20:31:49.693Z,9.73
2023-02-11T20:34:17.714Z,10.10
2023-02-11T20:36:51.564Z,9.18
2023-02-11T20:39:21.712Z,8.10
2023-02-11T20:41:49.701Z,10.15
2023-02-11T20:44:17.438Z,9.25
2023-02-11T20:46:46.589Z,11.60
2023-02-11T20:49:21.769Z,10.07
2023-02-11T20:51:49.817Z,9.77
2023-02-11T20:54:21.674Z,10.13
2023-02-11T20:56:51.055Z,9.30
2023-02-11T21:02:26.921Z,8.03
2023-02-11T21:04:54.987Z,9.98
2023-02-11T21:07:22.692Z,9.82
2023-02-11T21:09:50.087Z,9.02
2023-02-11T21:12:20.289Z,8.60
2023-02-11T21:14:57.426Z,10.20
2023-02-11T21:17:26.553Z,7.65
2023-02-11T21:19:53.969Z,9.10
2023-02-11T21:22:21.290Z,8.07
2023-02-11T21:24:48.644Z,9.43
2023-02-11T21:27:16.089Z,11.02
2023-02-11T21:29:53.853Z,10.70
2023-02-11T21:32:21.931Z,11.10
2023-02-11T21:34:49.344Z,10.27
2023-02-11T21:37:16.816Z,8.52
2023-02-11T21:39:44.124Z,10.13
2023-02-11T21:42:11.748Z,8.45
2023-02-11T21:44:39.161Z,7.95
2023-02-11T21:47:06.767Z,9.20
2023-02-11T21:49:37.008Z,10.77
2023-02-11T21:52:04.873Z,10.52
2023-02-11T21:54:32.836Z,7.97
2023-02-11T21:57:02.890Z,8.70
2023-02-11T21:59:31.757Z,9.20
2023-02-11T22:01:59.084Z,7.60
2023-02-11T22:04:26.597Z,9.02
2023-02-11T22:06:53.931Z,9.57
2023-02-11T22:09:21.235Z,9.48
2023-02-11T22:11:49.223Z,9.60
2023-02-11T22:14:17.060Z,8.90
2023-02-11T22:16:47.730Z,9.38
2023-02-11T22:19:18.768Z,8.68
2023-02-11T22:21:46.074Z,7.80
2023-02-11T22:24:13.384Z,9.55
2023-02-11T22:26:41.007Z,7.82
2023-02-11T22:29:08.363Z,9.63
2023-02-11T22:31:35.949Z,8.23
2023-02-11T22:34:04.599Z,9.03
2023-02-11T22:36:40.339Z,8.40
2023-02-11T22:39:11.590Z,9.87
2023-02-11T22:41:40.042Z,9.93
2023-02-11T22:44:07.560Z,9.53
2023-02-11T22:46:34.933Z,10.23
2023-02-11T22:49:02.413Z,8.73
2023-02-11T22:51:30.582Z,9.40
2023-02-11T22:54:00.834Z,7.20
2023-02-11T22:56:30.953Z,9.20
2023-02-11T22:59:04.149Z,9.45
2023-02-11T23:01:31.990Z,9.90
2023-02-11T23:04:04.025Z,8.45
2023-02-11T23:06:31.590Z,8.15
2023-02-11T23:08:59.376Z,9.73
2023-02-11T23:11:29.506Z,9.20
2023-02-11T23:13:57.139Z,9.65
2023-02-11T23:16:28.244Z,9.60
2023-02-11T23:18:56.063Z,10.10
2023-02-11T23:21:27.906Z,10.27
2023-02-11T23:24:00.506Z,9.45
2023-02-11T23:26:28.657Z,8.90
2023-02-11T23:28:56.245Z,7.90
2023-02-11T23:31:26.206Z,8.35
2023-02-11T23:33:53.569Z,10.60
2023-02-11T23:36:21.908Z,7.53
2023-02-11T23:38:49.442Z,10.10
2023-02-11T23:41:17.004Z,10.57
2023-02-11T23:43:44.703Z,10.40
2023-02-11T23:46:12.476Z,10.05
2023-02-11T23:48:40.461Z,11.35
2023-02-11T23:51:09.724Z,10.77
2023-02-11T23:53:38.264Z,12.82
2023-02-11T23:56:15.155Z,12.65
2023-02-11T23:58:44.684Z,14.55
